sensor_id;sensor_type;location;lat;lon;timestamp;pressure;altitude;pressure_sealevel;temperature;humidity
64362;BME280;50685;53.346;-6.296;2022-09-03T00:00:14;100395.63;;;16.64;54.25
64362;BME280;50685;53.346;-6.296;2022-09-03T00:02:41;100402.84;;;16.62;53.95
64362;BME280;50685;53.346;-6.296;2022-09-03T00:07:41;100388.66;;;16.60;54.76
64362;BME280;50685;53.346;-6.296;2022-09-03T00:10:44;100394.97;;;16.59;54.39
64362;BME280;50685;53.346;-6.296;2022-09-03T00:13:02;100389.63;;;16.59;54.42
64362;BME280;50685;53.346;-6.296;2022-09-03T00:15:29;100384.09;;;16.62;54.13
64362;BME280;50685;53.346;-6.296;2022-09-03T00:18:06;100376.06;;;16.62;53.98
64362;BME280;50685;53.346;-6.296;2022-09-03T00:20:35;100368.13;;;16.61;54.15
64362;BME280;50685;53.346;-6.296;2022-09-03T00:23:04;100384.25;;;16.59;54.85
64362;BME280;50685;53.346;-6.296;2022-09-03T00:28:05;100384.38;;;16.56;55.41
64362;BME280;50685;53.346;-6.296;2022-09-03T00:30:33;100396.03;;;16.55;55.69
64362;BME280;50685;53.346;-6.296;2022-09-03T00:33:06;100412.16;;;16.53;56.09
64362;BME280;50685;53.346;-6.296;2022-09-03T00:38:00;100402.59;;;16.48;56.67
64362;BME280;50685;53.346;-6.296;2022-09-03T00:42:56;100402.84;;;16.42;57.29
64362;BME280;50685;53.346;-6.296;2022-09-03T00:45:33;100396.66;;;16.41;57.94
64362;BME280;50685;53.346;-6.296;2022-09-03T00:50:39;100396.84;;;16.36;58.48
64362;BME280;50685;53.346;-6.296;2022-09-03T01:00:55;100380.78;;;16.36;58.42
64362;BME280;50685;53.346;-6.296;2022-09-03T01:13:39;100375.34;;;16.38;58.93
64362;BME280;50685;53.346;-6.296;2022-09-03T01:22:02;100359.53;;;16.33;60.18
64362;BME280;50685;53.346;-6.296;2022-09-03T01:34:36;100340.06;;;16.30;59.50
64362;BME280;50685;53.346;-6.296;2022-09-03T01:42:14;100350.13;;;16.23;59.46
64362;BME280;50685;53.346;-6.296;2022-09-03T01:57:54;100337.00;;;15.96;63.14
64362;BME280;50685;53.346;-6.296;2022-09-03T02:00:23;100333.59;;;15.93;63.25
64362;BME280;50685;53.346;-6.296;2022-09-03T02:02:49;100324.72;;;15.92;63.45
64362;BME280;50685;53.346;-6.296;2022-09-03T02:07:42;100341.84;;;15.88;65.02
64362;BME280;50685;53.346;-6.296;2022-09-03T02:10:10;100347.38;;;15.83;65.87
64362;BME280;50685;53.346;-6.296;2022-09-03T02:12:36;100352.13;;;15.75;66.16
64362;BME280;50685;53.346;-6.296;2022-09-03T02:15:04;100347.13;;;15.67;66.63
64362;BME280;50685;53.346;-6.296;2022-09-03T02:17:31;100348.28;;;15.60;67.09
64362;BME280;50685;53.346;-6.296;2022-09-03T02:19:57;100339.53;;;15.56;67.78
64362;BME280;50685;53.346;-6.296;2022-09-03T02:22:22;100331.69;;;15.52;68.17
64362;BME280;50685;53.346;-6.296;2022-09-03T02:24:48;100330.00;;;15.49;68.06
64362;BME280;50685;53.346;-6.296;2022-09-03T02:27:13;100327.47;;;15.46;69.04
64362;BME280;50685;53.346;-6.296;2022-09-03T02:29:39;100325.75;;;15.45;69.58
64362;BME280;50685;53.346;-6.296;2022-09-03T02:32:05;100322.25;;;15.43;70.02
64362;BME280;50685;53.346;-6.296;2022-09-03T02:34:30;100325.00;;;15.41;70.13
64362;BME280;50685;53.346;-6.296;2022-09-03T02:36:55;100318.91;;;15.38;69.45
64362;BME280;50685;53.346;-6.296;2022-09-03T02:39:21;100314.41;;;15.38;70.06
64362;BME280;50685;53.346;-6.296;2022-09-03T02:41:49;100314.41;;;15.38;70.20
64362;BME280;50685;53.346;-6.296;2022-09-03T02:44:17;100321.44;;;15.41;69.87
64362;BME280;50685;53.346;-6.296;2022-09-03T02:46:53;100332.94;;;15.43;70.15
64362;BME280;50685;53.346;-6.296;2022-09-03T02:49:21;100337.34;;;15.44;70.67
64362;BME280;50685;53.346;-6.296;2022-09-03T02:51:46;100337.34;;;15.44;70.34
64362;BME280;50685;53.346;-6.296;2022-09-03T02:54:11;100322.19;;;15.45;71.09
64362;BME280;50685;53.346;-6.296;2022-09-03T02:56:37;100320.41;;;15.45;71.32
64362;BME280;50685;53.346;-6.296;2022-09-03T02:59:03;100316.84;;;15.45;71.16
64362;BME280;50685;53.346;-6.296;2022-09-03T03:01:28;100317.66;;;15.47;71.34
64362;BME280;50685;53.346;-6.296;2022-09-03T03:03:53;100309.53;;;15.50;71.27
64362;BME280;50685;53.346;-6.296;2022-09-03T03:06:19;100305.97;;;15.49;71.33
64362;BME280;50685;53.346;-6.296;2022-09-03T03:08:45;100319.41;;;15.48;72.33
64362;BME280;50685;53.346;-6.296;2022-09-03T03:11:11;100317.66;;;15.47;72.81
64362;BME280;50685;53.346;-6.296;2022-09-03T03:13:36;100321.25;;;15.46;72.53
64362;BME280;50685;53.346;-6.296;2022-09-03T03:16:03;100325.66;;;15.47;72.59
64362;BME280;50685;53.346;-6.296;2022-09-03T03:18:30;100326.66;;;15.44;73.05
64362;BME280;50685;53.346;-6.296;2022-09-03T03:20:55;100315.22;;;15.40;72.16
64362;BME280;50685;53.346;-6.296;2022-09-03T03:23:21;100312.56;;;15.40;72.65
64362;BME280;50685;53.346;-6.296;2022-09-03T03:25:46;100311.88;;;15.35;72.83
64362;BME280;50685;53.346;-6.296;2022-09-03T03:28:12;100308.47;;;15.32;73.31
64362;BME280;50685;53.346;-6.296;2022-09-03T03:30:42;100309.56;;;15.26;73.71
64362;BME280;50685;53.346;-6.296;2022-09-03T03:33:12;100313.22;;;15.23;74.82
64362;BME280;50685;53.346;-6.296;2022-09-03T03:35:37;100312.47;;;15.20;75.94
64362;BME280;50685;53.346;-6.296;2022-09-03T03:38:04;100308.22;;;15.16;76.19
64362;BME280;50685;53.346;-6.296;2022-09-03T03:40:30;100307.38;;;15.14;76.20
64362;BME280;50685;53.346;-6.296;2022-09-03T03:42:56;100294.16;;;15.10;76.40
64362;BME280;50685;53.346;-6.296;2022-09-03T03:45:21;100305.72;;;15.11;76.19
64362;BME280;50685;53.346;-6.296;2022-09-03T03:47:47;100300.44;;;15.09;76.18
64362;BME280;50685;53.346;-6.296;2022-09-03T03:50:12;100291.53;;;15.09;75.76
64362;BME280;50685;53.346;-6.296;2022-09-03T03:52:37;100292.44;;;15.09;75.85
64362;BME280;50685;53.346;-6.296;2022-09-03T03:55:03;100302.19;;;15.10;75.58
64362;BME280;50685;53.346;-6.296;2022-09-03T03:57:29;100303.97;;;15.10;76.21
64362;BME280;50685;53.346;-6.296;2022-09-03T03:59:55;100297.78;;;15.09;75.77
64362;BME280;50685;53.346;-6.296;2022-09-03T04:02:21;100283.50;;;15.10;75.90
64362;BME280;50685;53.346;-6.296;2022-09-03T04:04:46;100279.06;;;15.09;75.89
64362;BME280;50685;53.346;-6.296;2022-09-03T04:07:11;100287.09;;;15.09;76.29
64362;BME280;50685;53.346;-6.296;2022-09-03T04:09:37;100292.28;;;15.13;76.77
64362;BME280;50685;53.346;-6.296;2022-09-03T04:12:02;100297.63;;;15.13;76.33
64362;BME280;50685;53.346;-6.296;2022-09-03T04:14:29;100288.69;;;15.14;75.96
64362;BME280;50685;53.346;-6.296;2022-09-03T04:16:55;100290.38;;;15.16;75.91
64362;BME280;50685;53.346;-6.296;2022-09-03T04:19:20;100292.19;;;15.16;76.53
64362;BME280;50685;53.346;-6.296;2022-09-03T04:21:46;100280.50;;;15.18;75.89
64362;BME280;50685;53.346;-6.296;2022-09-03T04:24:14;100279.50;;;15.21;75.83
64362;BME280;50685;53.346;-6.296;2022-09-03T04:26:39;100279.56;;;15.19;75.45
64362;BME280;50685;53.346;-6.296;2022-09-03T04:29:08;100287.59;;;15.19;75.83
64362;BME280;50685;53.346;-6.296;2022-09-03T04:31:34;100277.91;;;15.17;73.64
64362;BME280;50685;53.346;-6.296;2022-09-03T04:34:00;100281.56;;;15.14;73.26
64362;BME280;50685;53.346;-6.296;2022-09-03T04:36:26;100277.19;;;15.12;72.24
64362;BME280;50685;53.346;-6.296;2022-09-03T04:38:52;100265.06;;;15.03;71.53
64362;BME280;50685;53.346;-6.296;2022-09-03T04:41:22;100276.34;;;15.11;72.95
64362;BME280;50685;53.346;-6.296;2022-09-03T04:43:51;100268.50;;;15.06;70.87
64362;BME280;50685;53.346;-6.296;2022-09-03T04:46:17;100280.25;;;15.02;71.12
64362;BME280;50685;53.346;-6.296;2022-09-03T04:48:46;100276.91;;;14.97;71.06
64362;BME280;50685;53.346;-6.296;2022-09-03T04:51:12;100276.13;;;14.93;70.96
64362;BME280;50685;53.346;-6.296;2022-09-03T04:53:39;100285.94;;;14.93;71.96
64362;BME280;50685;53.346;-6.296;2022-09-03T04:56:12;100283.34;;;14.91;72.15
64362;BME280;50685;53.346;-6.296;2022-09-03T04:58:38;100285.06;;;14.92;72.01
64362;BME280;50685;53.346;-6.296;2022-09-03T05:01:07;100278.91;;;14.90;71.84
64362;BME280;50685;53.346;-6.296;2022-09-03T05:03:33;100280.84;;;14.87;72.48
64362;BME280;50685;53.346;-6.296;2022-09-03T05:05:58;100287.34;;;14.80;73.97
64362;BME280;50685;53.346;-6.296;2022-09-03T05:08:24;100290.56;;;14.66;75.36
64362;BME280;50685;53.346;-6.296;2022-09-03T05:10:56;100294.41;;;14.57;75.24
64362;BME280;50685;53.346;-6.296;2022-09-03T05:13:22;100292.19;;;14.44;76.37
64362;BME280;50685;53.346;-6.296;2022-09-03T05:15:47;100287.09;;;14.38;77.56
64362;BME280;50685;53.346;-6.296;2022-09-03T05:18:13;100272.75;;;14.41;77.55
64362;BME280;50685;53.346;-6.296;2022-09-03T05:20:38;100263.06;;;14.38;77.32
64362;BME280;50685;53.346;-6.296;2022-09-03T05:23:03;100274.78;;;14.34;77.81
64362;BME280;50685;53.346;-6.296;2022-09-03T05:25:29;100278.50;;;14.30;78.39
64362;BME280;50685;53.346;-6.296;2022-09-03T05:27:58;100270.50;;;14.30;77.87
64362;BME280;50685;53.346;-6.296;2022-09-03T05:30:23;100264.31;;;14.28;78.83
64362;BME280;50685;53.346;-6.296;2022-09-03T05:32:50;100269.78;;;14.25;78.84
64362;BME280;50685;53.346;-6.296;2022-09-03T05:35:16;100261.03;;;14.21;78.49
64362;BME280;50685;53.346;-6.296;2022-09-03T05:37:41;100277.03;;;14.21;78.86
64362;BME280;50685;53.346;-6.296;2022-09-03T05:40:07;100280.53;;;14.23;79.53
64362;BME280;50685;53.346;-6.296;2022-09-03T05:42:35;100290.31;;;14.23;79.61
64362;BME280;50685;53.346;-6.296;2022-09-03T05:45:03;100297.38;;;14.24;79.41
64362;BME280;50685;53.346;-6.296;2022-09-03T05:47:29;100292.88;;;14.26;79.48
64362;BME280;50685;53.346;-6.296;2022-09-03T05:49:54;100291.22;;;14.22;79.87
64362;BME280;50685;53.346;-6.296;2022-09-03T05:52:20;100288.78;;;14.16;79.45
64362;BME280;50685;53.346;-6.296;2022-09-03T05:54:47;100292.66;;;14.07;79.81
64362;BME280;50685;53.346;-6.296;2022-09-03T05:57:12;100294.69;;;14.00;80.11
64362;BME280;50685;53.346;-6.296;2022-09-03T05:59:38;100298.34;;;13.96;80.83
64362;BME280;50685;53.346;-6.296;2022-09-03T06:02:03;100300.03;;;13.98;80.97
64362;BME280;50685;53.346;-6.296;2022-09-03T06:04:29;100294.69;;;14.00;81.08
64362;BME280;50685;53.346;-6.296;2022-09-03T06:06:54;100292.09;;;13.97;80.90
64362;BME280;50685;53.346;-6.296;2022-09-03T06:09:20;100302.91;;;13.94;81.56
64362;BME280;50685;53.346;-6.296;2022-09-03T06:11:46;100303.91;;;13.90;81.63
64362;BME280;50685;53.346;-6.296;2022-09-03T06:14:14;100308.31;;;13.91;82.01
64362;BME280;50685;53.346;-6.296;2022-09-03T06:16:40;100303.88;;;13.91;82.18
64362;BME280;50685;53.346;-6.296;2022-09-03T06:19:16;100312.66;;;13.93;82.13
64362;BME280;50685;53.346;-6.296;2022-09-03T06:21:42;100314.47;;;13.93;82.49
64362;BME280;50685;53.346;-6.296;2022-09-03T06:24:18;100318.75;;;13.97;82.20
64362;BME280;50685;53.346;-6.296;2022-09-03T06:26:46;100322.31;;;13.97;82.35
64362;BME280;50685;53.346;-6.296;2022-09-03T06:29:19;100327.75;;;13.94;81.39
64362;BME280;50685;53.346;-6.296;2022-09-03T06:31:45;100330.56;;;13.90;81.35
64362;BME280;50685;53.346;-6.296;2022-09-03T06:34:12;100342.16;;;13.89;80.87
64362;BME280;50685;53.346;-6.296;2022-09-03T06:36:37;100342.69;;;13.73;80.27
64362;BME280;50685;53.346;-6.296;2022-09-03T06:39:05;100340.28;;;13.65;80.92
64362;BME280;50685;53.346;-6.296;2022-09-03T06:41:31;100341.13;;;13.66;81.33
64362;BME280;50685;53.346;-6.296;2022-09-03T06:44:05;100341.13;;;13.66;81.38
64362;BME280;50685;53.346;-6.296;2022-09-03T06:46:37;100338.41;;;13.68;81.39
64362;BME280;50685;53.346;-6.296;2022-09-03T06:49:06;100341.91;;;13.70;80.96
64362;BME280;50685;53.346;-6.296;2022-09-03T06:51:35;100337.63;;;13.64;81.09
64362;BME280;50685;53.346;-6.296;2022-09-03T06:54:02;100345.81;;;13.59;81.68
64362;BME280;50685;53.346;-6.296;2022-09-03T06:56:29;100347.59;;;13.59;81.54
64362;BME280;50685;53.346;-6.296;2022-09-03T06:59:02;100345.88;;;13.56;81.87
64362;BME280;50685;53.346;-6.296;2022-09-03T07:01:28;100339.66;;;13.57;82.82
64362;BME280;50685;53.346;-6.296;2022-09-03T07:03:55;100340.63;;;13.55;82.49
64362;BME280;50685;53.346;-6.296;2022-09-03T07:06:25;100344.16;;;13.55;81.98
64362;BME280;50685;53.346;-6.296;2022-09-03T07:08:51;100347.63;;;13.57;82.38
64362;BME280;50685;53.346;-6.296;2022-09-03T07:11:18;100349.38;;;13.58;82.44
64362;BME280;50685;53.346;-6.296;2022-09-03T07:13:47;100343.84;;;13.64;82.59
64362;BME280;50685;53.346;-6.296;2022-09-03T07:16:15;100342.94;;;13.65;81.89
64362;BME280;50685;53.346;-6.296;2022-09-03T07:18:41;100345.53;;;13.67;82.16
64362;BME280;50685;53.346;-6.296;2022-09-03T07:21:10;100349.97;;;13.68;82.62
64362;BME280;50685;53.346;-6.296;2022-09-03T07:23:36;100346.47;;;13.66;83.07
64362;BME280;50685;53.346;-6.296;2022-09-03T07:26:05;100348.22;;;13.67;82.97
64362;BME280;50685;53.346;-6.296;2022-09-03T07:28:33;100353.47;;;13.69;83.05
64362;BME280;50685;53.346;-6.296;2022-09-03T07:31:05;100346.31;;;13.71;82.83
64362;BME280;50685;53.346;-6.296;2022-09-03T07:33:34;100355.09;;;13.73;82.42
64362;BME280;50685;53.346;-6.296;2022-09-03T07:36:24;100364.09;;;13.70;82.64
64362;BME280;50685;53.346;-6.296;2022-09-03T07:38:54;100361.47;;;13.69;82.31
64362;BME280;50685;53.346;-6.296;2022-09-03T07:41:22;100366.66;;;13.73;82.25
64362;BME280;50685;53.346;-6.296;2022-09-03T07:43:58;100358.53;;;13.78;82.83
64362;BME280;50685;53.346;-6.296;2022-09-03T07:46:54;100374.47;;;13.79;83.25
64362;BME280;50685;53.346;-6.296;2022-09-03T10:54:54;100346.19;;;13.17;86.52
64362;BME280;50685;53.346;-6.296;2022-09-03T11:00:14;100349.56;;;13.24;86.84
64362;BME280;50685;53.346;-6.296;2022-09-03T11:15:00;100336.06;;;13.30;87.79
64362;BME280;50685;53.346;-6.296;2022-09-03T11:20:22;100337.88;;;13.28;87.87
64362;BME280;50685;53.346;-6.296;2022-09-03T14:16:59;100225.66;;;14.40;95.51
64362;BME280;50685;53.346;-6.296;2022-09-03T14:23:01;100214.94;;;14.41;94.90
64362;BME280;50685;53.346;-6.296;2022-09-03T14:25:33;100223.75;;;14.43;94.86
64362;BME280;50685;53.346;-6.296;2022-09-03T14:39:14;100215.50;;;14.50;95.34
64362;BME280;50685;53.346;-6.296;2022-09-03T14:41:54;100205.75;;;14.49;95.40
64362;BME280;50685;53.346;-6.296;2022-09-03T14:49:20;100204.84;;;14.50;95.09
64362;BME280;50685;53.346;-6.296;2022-09-03T14:52:06;100204.72;;;14.53;96.00
64362;BME280;50685;53.346;-6.296;2022-09-03T15:39:29;100161.69;;;14.38;95.72
64362;BME280;50685;53.346;-6.296;2022-09-03T15:41:56;100195.78;;;14.54;95.63
64362;BME280;50685;53.346;-6.296;2022-09-03T15:44:24;100191.44;;;14.51;95.48
64362;BME280;50685;53.346;-6.296;2022-09-03T15:46:57;100183.56;;;14.48;95.26
64362;BME280;50685;53.346;-6.296;2022-09-03T15:55:09;100169.56;;;14.41;96.17
64362;BME280;50685;53.346;-6.296;2022-09-03T15:57:50;100167.13;;;14.35;95.83
64362;BME280;50685;53.346;-6.296;2022-09-03T16:03:15;100173.09;;;14.20;96.76
64362;BME280;50685;53.346;-6.296;2022-09-03T16:05:54;100171.44;;;14.16;97.60
64362;BME280;50685;53.346;-6.296;2022-09-03T16:16:40;100178.41;;;14.20;98.42
64362;BME280;50685;53.346;-6.296;2022-09-03T16:19:13;100169.50;;;14.21;98.20
64362;BME280;50685;53.346;-6.296;2022-09-03T16:24:24;100163.91;;;14.27;98.83
64362;BME280;50685;53.346;-6.296;2022-09-03T16:27:06;100170.00;;;14.30;99.18
64362;BME280;50685;53.346;-6.296;2022-09-03T16:41:29;100173.63;;;14.52;99.34
64362;BME280;50685;53.346;-6.296;2022-09-03T16:46:52;100155.00;;;14.50;99.46
64362;BME280;50685;53.346;-6.296;2022-09-03T16:49:46;100155.88;;;14.51;99.58
64362;BME280;50685;53.346;-6.296;2022-09-03T16:52:36;100155.88;;;14.51;99.53
64362;BME280;50685;53.346;-6.296;2022-09-03T16:55:14;100154.97;;;14.52;99.68
64362;BME280;50685;53.346;-6.296;2022-09-03T17:00:44;100159.38;;;14.53;99.51
64362;BME280;50685;53.346;-6.296;2022-09-03T17:03:30;100140.72;;;14.51;99.24
64362;BME280;50685;53.346;-6.296;2022-09-03T17:16:11;100144.16;;;14.55;100.00
64362;BME280;50685;53.346;-6.296;2022-09-03T17:23:47;100127.84;;;14.62;100.00
64362;BME280;50685;53.346;-6.296;2022-09-03T17:36:25;100142.50;;;14.74;99.73
64362;BME280;50685;53.346;-6.296;2022-09-03T17:39:15;100159.28;;;14.78;99.65
64362;BME280;50685;53.346;-6.296;2022-09-03T17:41:51;100149.47;;;14.78;98.92
64362;BME280;50685;53.346;-6.296;2022-09-03T17:46:49;100155.56;;;14.82;98.66
64362;BME280;50685;53.346;-6.296;2022-09-03T17:49:52;100165.28;;;14.83;98.33
64362;BME280;50685;53.346;-6.296;2022-09-03T17:54:47;100191.06;;;14.84;97.35
64362;BME280;50685;53.346;-6.296;2022-09-03T17:57:17;100198.06;;;14.87;97.48
64362;BME280;50685;53.346;-6.296;2022-09-03T17:59:57;100200.69;;;14.88;97.62
64362;BME280;50685;53.346;-6.296;2022-09-03T18:05:08;100215.84;;;14.88;96.82
64362;BME280;50685;53.346;-6.296;2022-09-03T18:20:02;100231.16;;;14.83;95.90
64362;BME280;50685;53.346;-6.296;2022-09-03T18:23:10;100234.84;;;14.80;95.24
64362;BME280;50685;53.346;-6.296;2022-09-03T18:25:57;100244.88;;;14.73;94.54
64362;BME280;50685;53.346;-6.296;2022-09-03T18:29:28;100245.69;;;14.75;96.16
64362;BME280;50685;53.346;-6.296;2022-09-03T18:31:50;100252.03;;;14.73;95.61
64362;BME280;50685;53.346;-6.296;2022-09-03T18:34:34;100260.09;;;14.71;95.70
64362;BME280;50685;53.346;-6.296;2022-09-03T18:37:20;100263.78;;;14.67;94.20
64362;BME280;50685;53.346;-6.296;2022-09-03T18:40:05;100264.72;;;14.66;95.76
64362;BME280;50685;53.346;-6.296;2022-09-03T18:42:55;100275.41;;;14.65;95.88
64362;BME280;50685;53.346;-6.296;2022-09-03T18:45:44;100288.06;;;14.59;95.16
64362;BME280;50685;53.346;-6.296;2022-09-03T18:54:41;100292.13;;;14.46;94.55
64362;BME280;50685;53.346;-6.296;2022-09-03T19:00:34;100284.41;;;14.38;93.46
64362;BME280;50685;53.346;-6.296;2022-09-03T19:06:41;100298.91;;;14.31;93.51
64362;BME280;50685;53.346;-6.296;2022-09-03T19:09:45;100298.97;;;14.29;94.87
64362;BME280;50685;53.346;-6.296;2022-09-03T19:15:39;100301.91;;;14.22;94.92
64362;BME280;50685;53.346;-6.296;2022-09-03T19:21:38;100306.81;;;14.09;95.33
64362;BME280;50685;53.346;-6.296;2022-09-03T19:24:28;100332.41;;;14.14;95.55
64362;BME280;50685;53.346;-6.296;2022-09-03T19:30:04;100343.25;;;14.08;95.14
64362;BME280;50685;53.346;-6.296;2022-09-03T19:39:20;100348.91;;;13.99;95.59
64362;BME280;50685;53.346;-6.296;2022-09-03T19:41:45;100370.31;;;13.97;95.52
64362;BME280;50685;53.346;-6.296;2022-09-03T19:47:19;100370.47;;;13.93;95.74
64362;BME280;50685;53.346;-6.296;2022-09-03T19:50:13;100383.03;;;13.89;95.27
64362;BME280;50685;53.346;-6.296;2022-09-03T19:53:02;100392.91;;;13.86;94.86
64362;BME280;50685;53.346;-6.296;2022-09-03T19:55:51;100408.00;;;13.87;95.52
64362;BME280;50685;53.346;-6.296;2022-09-03T19:58:37;100401.06;;;13.81;94.55
64362;BME280;50685;53.346;-6.296;2022-09-03T20:01:22;100410.03;;;13.78;94.05
64362;BME280;50685;53.346;-6.296;2022-09-03T20:04:12;100410.09;;;13.77;94.28
64362;BME280;50685;53.346;-6.296;2022-09-03T20:06:57;100412.75;;;13.77;94.29
64362;BME280;50685;53.346;-6.296;2022-09-03T20:09:42;100416.41;;;13.73;93.87
64362;BME280;50685;53.346;-6.296;2022-09-03T20:12:26;100417.50;;;13.67;91.48
64362;BME280;50685;53.346;-6.296;2022-09-03T20:14:53;100414.00;;;13.65;92.46
64362;BME280;50685;53.346;-6.296;2022-09-03T20:17:26;100374.31;;;13.27;91.03
64362;BME280;50685;53.346;-6.296;2022-09-03T20:22:43;100428.44;;;13.58;92.51
64362;BME280;50685;53.346;-6.296;2022-09-03T20:30:34;100435.03;;;13.46;89.63
64362;BME280;50685;53.346;-6.296;2022-09-03T20:33:10;100437.72;;;13.44;91.59
64362;BME280;50685;53.346;-6.296;2022-09-03T20:41:08;100437.09;;;13.34;90.75
64362;BME280;50685;53.346;-6.296;2022-09-03T20:51:44;100460.66;;;13.18;90.79
64362;BME280;50685;53.346;-6.296;2022-09-03T20:54:19;100464.31;;;13.14;93.38
64362;BME280;50685;53.346;-6.296;2022-09-03T20:59:42;100453.94;;;13.05;91.35
64362;BME280;50685;53.346;-6.296;2022-09-03T21:04:50;100435.28;;;13.05;91.95
64362;BME280;50685;53.346;-6.296;2022-09-03T21:07:21;100430.94;;;13.02;91.09
64362;BME280;50685;53.346;-6.296;2022-09-03T21:12:28;100435.94;;;13.13;90.70
64362;BME280;50685;53.346;-6.296;2022-09-03T21:18:05;100437.81;;;13.11;90.57
64362;BME280;50685;53.346;-6.296;2022-09-03T21:23:34;100441.31;;;13.12;91.71
64362;BME280;50685;53.346;-6.296;2022-09-03T21:26:04;100450.19;;;13.12;89.46
64362;BME280;50685;53.346;-6.296;2022-09-03T21:28:33;100441.22;;;13.15;88.30
64362;BME280;50685;53.346;-6.296;2022-09-03T21:31:04;100440.31;;;13.16;91.15
64362;BME280;50685;53.346;-6.296;2022-09-03T21:33:32;100447.50;;;13.12;90.57
64362;BME280;50685;53.346;-6.296;2022-09-03T21:36:01;100450.19;;;13.12;91.59
64362;BME280;50685;53.346;-6.296;2022-09-03T21:38:30;100448.47;;;13.11;91.42
64362;BME280;50685;53.346;-6.296;2022-09-03T21:41:01;100456.50;;;13.08;89.02
64362;BME280;50685;53.346;-6.296;2022-09-03T21:43:34;100457.31;;;13.12;90.83
64362;BME280;50685;53.346;-6.296;2022-09-03T21:46:08;100468.00;;;13.10;89.37
64362;BME280;50685;53.346;-6.296;2022-09-03T21:48:41;100456.50;;;13.08;89.46
64362;BME280;50685;53.346;-6.296;2022-09-03T21:51:19;100458.22;;;13.11;91.20
64362;BME280;50685;53.346;-6.296;2022-09-03T21:53:49;100461.72;;;13.13;93.04
64362;BME280;50685;53.346;-6.296;2022-09-03T22:01:29;100456.44;;;13.11;93.20
64362;BME280;50685;53.346;-6.296;2022-09-03T22:03:56;100458.16;;;13.12;93.03
64362;BME280;50685;53.346;-6.296;2022-09-03T22:06:30;100451.88;;;13.15;92.42
64362;BME280;50685;53.346;-6.296;2022-09-03T22:11:28;100457.19;;;13.16;92.18
64362;BME280;50685;53.346;-6.296;2022-09-03T22:16:47;100455.38;;;13.17;93.74
64362;BME280;50685;53.346;-6.296;2022-09-03T22:19:10;100448.47;;;13.11;92.41
64362;BME280;50685;53.346;-6.296;2022-09-03T22:24:10;100446.47;;;13.18;94.52
64362;BME280;50685;53.346;-6.296;2022-09-03T22:31:57;100435.81;;;13.18;94.68
64362;BME280;50685;53.346;-6.296;2022-09-03T22:34:25;100427.84;;;13.18;95.07
64362;BME280;50685;53.346;-6.296;2022-09-03T22:36:57;100434.00;;;13.18;95.24
64362;BME280;50685;53.346;-6.296;2022-09-03T22:39:34;100420.69;;;13.20;95.80
64362;BME280;50685;53.346;-6.296;2022-09-03T22:42:20;100421.72;;;13.14;93.93
64362;BME280;50685;53.346;-6.296;2022-09-03T22:47:35;100455.38;;;13.17;94.82
64362;BME280;50685;53.346;-6.296;2022-09-03T22:52:43;100465.91;;;13.22;95.79
64362;BME280;50685;53.346;-6.296;2022-09-03T22:55:14;100469.47;;;13.21;95.73
64362;BME280;50685;53.346;-6.296;2022-09-03T22:58:02;100474.75;;;13.22;95.68
64362;BME280;50685;53.346;-6.296;2022-09-03T23:00:25;100469.34;;;13.25;96.11
64362;BME280;50685;53.346;-6.296;2022-09-03T23:02:58;100466.72;;;13.24;95.56
64362;BME280;50685;53.346;-6.296;2022-09-03T23:05:28;100462.28;;;13.24;95.26
64362;BME280;50685;53.346;-6.296;2022-09-03T23:07:56;100452.47;;;13.26;95.75
64362;BME280;50685;53.346;-6.296;2022-09-03T23:11:02;100436.47;;;13.26;95.64
64362;BME280;50685;53.346;-6.296;2022-09-03T23:13:21;100439.03;;;13.29;96.16
64362;BME280;50685;53.346;-6.296;2022-09-03T23:15:50;100442.47;;;13.33;96.76
64362;BME280;50685;53.346;-6.296;2022-09-03T23:18:20;100446.94;;;13.32;95.98
64362;BME280;50685;53.346;-6.296;2022-09-03T23:21:13;100442.41;;;13.36;96.18
64362;BME280;50685;53.346;-6.296;2022-09-03T23:23:35;100440.56;;;13.40;96.92
64362;BME280;50685;53.346;-6.296;2022-09-03T23:26:13;100447.56;;;13.42;97.11
64362;BME280;50685;53.346;-6.296;2022-09-03T23:28:41;100449.28;;;13.45;97.32
64362;BME280;50685;53.346;-6.296;2022-09-03T23:31:19;100448.34;;;13.46;96.59
64362;BME280;50685;53.346;-6.296;2022-09-03T23:33:45;100435.84;;;13.48;97.01
64362;BME280;50685;53.346;-6.296;2022-09-03T23:44:48;100415.22;;;13.55;98.20
64362;BME280;50685;53.346;-6.296;2022-09-03T23:50:02;100417.84;;;13.56;98.82
64362;BME280;50685;53.346;-6.296;2022-09-03T23:58:07;100398.25;;;13.57;99.32
